sensor_id;sensor_type;location;lat;lon;timestamp;P1;durP1;ratioP1;P2;durP2;ratioP2
78927;SDS011;68322;22.726;113.540;2023-03-01T15:22:58;36.85;;;20.30;;
78927;SDS011;68322;22.726;113.540;2023-03-01T15:25:27;31.38;;;17.83;;
78927;SDS011;68322;22.726;113.540;2023-03-01T15:27:54;33.45;;;17.55;;
78927;SDS011;68322;22.726;113.540;2023-03-01T15:30:25;30.27;;;15.50;;
78927;SDS011;68322;22.726;113.540;2023-03-01T15:35:46;30.08;;;18.70;;
78927;SDS011;68322;22.726;113.540;2023-03-01T15:38:27;29.05;;;15.98;;
78927;SDS011;68322;22.726;113.540;2023-03-01T15:40:55;36.42;;;17.92;;
78927;SDS011;68322;22.726;113.540;2023-03-01T15:43:44;29.20;;;15.02;;
78927;SDS011;68322;22.726;113.540;2023-03-01T15:50:00;110.22;;;55.45;;
78927;SDS011;68322;22.726;113.540;2023-03-01T15:52:32;98.35;;;52.58;;
78927;SDS011;68322;22.726;113.540;2023-03-01T15:55:03;100.72;;;47.78;;
78927;SDS011;68322;22.726;113.540;2023-03-01T15:57:31;100.13;;;51.33;;
78927;SDS011;68322;22.726;113.540;2023-03-01T15:59:58;97.80;;;48.80;;
78927;SDS011;68322;22.726;113.540;2023-03-01T16:02:24;110.20;;;46.40;;
78927;SDS011;68322;22.726;113.540;2023-03-01T16:04:51;97.00;;;46.08;;
78927;SDS011;68322;22.726;113.540;2023-03-01T16:07:21;111.35;;;51.83;;
78927;SDS011;68322;22.726;113.540;2023-03-01T16:09:47;101.07;;;50.30;;
78927;SDS011;68322;22.726;113.540;2023-03-01T16:12:14;118.38;;;53.90;;
78927;SDS011;68322;22.726;113.540;2023-03-01T16:14:42;101.05;;;47.97;;
78927;SDS011;68322;22.726;113.540;2023-03-01T16:17:08;109.40;;;51.90;;
78927;SDS011;68322;22.726;113.540;2023-03-01T16:19:36;119.43;;;56.20;;
78927;SDS011;68322;22.726;113.540;2023-03-01T16:22:03;117.70;;;58.45;;
78927;SDS011;68322;22.726;113.540;2023-03-01T16:24:29;127.95;;;64.70;;
78927;SDS011;68322;22.726;113.540;2023-03-01T16:26:56;119.78;;;55.40;;
78927;SDS011;68322;22.726;113.540;2023-03-01T16:29:25;107.22;;;54.90;;
78927;SDS011;68322;22.726;113.540;2023-03-01T16:31:52;109.32;;;54.75;;
78927;SDS011;68322;22.726;113.540;2023-03-01T16:34:19;107.13;;;52.90;;
78927;SDS011;68322;22.726;113.540;2023-03-01T16:36:47;107.38;;;51.60;;
78927;SDS011;68322;22.726;113.540;2023-03-01T16:39:14;102.20;;;53.55;;
78927;SDS011;68322;22.726;113.540;2023-03-01T16:41:41;111.53;;;53.40;;
78927;SDS011;68322;22.726;113.540;2023-03-01T16:44:08;114.13;;;52.58;;
78927;SDS011;68322;22.726;113.540;2023-03-01T16:46:35;112.05;;;53.30;;
78927;SDS011;68322;22.726;113.540;2023-03-01T16:49:01;114.10;;;53.25;;
78927;SDS011;68322;22.726;113.540;2023-03-01T16:51:28;106.55;;;54.22;;
78927;SDS011;68322;22.726;113.540;2023-03-01T16:53:56;110.22;;;54.33;;
78927;SDS011;68322;22.726;113.540;2023-03-01T16:56:22;108.45;;;52.30;;
78927;SDS011;68322;22.726;113.540;2023-03-01T16:58:49;121.47;;;56.97;;
78927;SDS011;68322;22.726;113.540;2023-03-01T17:01:17;104.45;;;51.28;;
78927;SDS011;68322;22.726;113.540;2023-03-01T17:03:44;105.80;;;53.95;;
78927;SDS011;68322;22.726;113.540;2023-03-01T17:06:14;111.75;;;51.88;;
78927;SDS011;68322;22.726;113.540;2023-03-01T17:08:41;106.60;;;52.83;;
78927;SDS011;68322;22.726;113.540;2023-03-01T17:11:09;103.57;;;52.97;;
78927;SDS011;68322;22.726;113.540;2023-03-01T17:13:37;111.68;;;53.50;;
78927;SDS011;68322;22.726;113.540;2023-03-01T17:16:08;109.82;;;56.70;;
78927;SDS011;68322;22.726;113.540;2023-03-01T17:18:35;109.70;;;55.13;;
78927;SDS011;68322;22.726;113.540;2023-03-01T17:21:03;99.43;;;52.10;;
78927;SDS011;68322;22.726;113.540;2023-03-01T17:23:30;102.75;;;49.38;;
78927;SDS011;68322;22.726;113.540;2023-03-01T17:25:57;105.88;;;51.45;;
78927;SDS011;68322;22.726;113.540;2023-03-01T17:28:25;96.75;;;46.63;;
78927;SDS011;68322;22.726;113.540;2023-03-01T17:30:52;116.03;;;49.15;;
78927;SDS011;68322;22.726;113.540;2023-03-01T17:33:19;103.07;;;49.35;;
78927;SDS011;68322;22.726;113.540;2023-03-01T17:35:46;110.25;;;51.72;;
78927;SDS011;68322;22.726;113.540;2023-03-01T17:38:13;107.10;;;49.17;;
78927;SDS011;68322;22.726;113.540;2023-03-01T17:40:41;97.72;;;44.88;;
78927;SDS011;68322;22.726;113.540;2023-03-01T17:43:13;102.45;;;49.58;;
78927;SDS011;68322;22.726;113.540;2023-03-01T17:45:40;119.05;;;51.15;;
78927;SDS011;68322;22.726;113.540;2023-03-01T17:48:09;103.32;;;48.63;;
78927;SDS011;68322;22.726;113.540;2023-03-01T17:50:36;87.53;;;49.75;;
78927;SDS011;68322;22.726;113.540;2023-03-01T17:53:05;98.80;;;50.63;;
78927;SDS011;68322;22.726;113.540;2023-03-01T17:55:37;109.82;;;47.00;;
78927;SDS011;68322;22.726;113.540;2023-03-01T17:58:04;94.10;;;46.60;;
78927;SDS011;68322;22.726;113.540;2023-03-01T18:00:32;92.40;;;46.70;;
78927;SDS011;68322;22.726;113.540;2023-03-01T18:02:59;83.70;;;42.30;;
78927;SDS011;68322;22.726;113.540;2023-03-01T18:05:26;88.07;;;47.28;;
78927;SDS011;68322;22.726;113.540;2023-03-01T18:07:52;87.45;;;44.28;;
78927;SDS011;68322;22.726;113.540;2023-03-01T18:10:19;82.57;;;39.80;;
78927;SDS011;68322;22.726;113.540;2023-03-01T18:12:46;79.22;;;39.90;;
78927;SDS011;68322;22.726;113.540;2023-03-01T18:15:13;75.93;;;36.97;;
78927;SDS011;68322;22.726;113.540;2023-03-01T18:17:40;67.05;;;34.13;;
78927;SDS011;68322;22.726;113.540;2023-03-01T18:20:06;76.70;;;38.65;;
78927;SDS011;68322;22.726;113.540;2023-03-01T18:22:33;72.10;;;36.33;;
78927;SDS011;68322;22.726;113.540;2023-03-01T18:25:02;68.57;;;37.58;;
78927;SDS011;68322;22.726;113.540;2023-03-01T18:27:29;69.70;;;35.50;;
78927;SDS011;68322;22.726;113.540;2023-03-01T18:29:56;67.95;;;36.35;;
78927;SDS011;68322;22.726;113.540;2023-03-01T18:32:23;71.00;;;34.92;;
78927;SDS011;68322;22.726;113.540;2023-03-01T18:34:50;71.70;;;36.40;;
78927;SDS011;68322;22.726;113.540;2023-03-01T18:37:17;74.45;;;38.67;;
78927;SDS011;68322;22.726;113.540;2023-03-01T18:39:44;68.80;;;35.17;;
78927;SDS011;68322;22.726;113.540;2023-03-01T18:42:10;71.40;;;37.75;;
78927;SDS011;68322;22.726;113.540;2023-03-01T18:44:40;65.93;;;38.50;;
78927;SDS011;68322;22.726;113.540;2023-03-01T18:47:07;81.25;;;39.38;;
78927;SDS011;68322;22.726;113.540;2023-03-01T18:49:34;66.60;;;37.03;;
78927;SDS011;68322;22.726;113.540;2023-03-01T18:52:00;85.00;;;42.47;;
78927;SDS011;68322;22.726;113.540;2023-03-01T18:54:27;73.38;;;36.05;;
78927;SDS011;68322;22.726;113.540;2023-03-01T18:56:54;75.55;;;37.97;;
78927;SDS011;68322;22.726;113.540;2023-03-01T18:59:20;73.60;;;38.10;;
78927;SDS011;68322;22.726;113.540;2023-03-01T19:01:47;68.75;;;36.65;;
78927;SDS011;68322;22.726;113.540;2023-03-01T19:04:14;73.22;;;36.10;;
78927;SDS011;68322;22.726;113.540;2023-03-01T19:06:40;66.20;;;37.05;;
78927;SDS011;68322;22.726;113.540;2023-03-01T19:09:07;65.57;;;35.13;;
78927;SDS011;68322;22.726;113.540;2023-03-01T19:11:35;71.70;;;36.83;;
78927;SDS011;68322;22.726;113.540;2023-03-01T19:14:03;71.93;;;34.90;;
78927;SDS011;68322;22.726;113.540;2023-03-01T19:16:30;64.95;;;31.63;;
78927;SDS011;68322;22.726;113.540;2023-03-01T19:18:58;62.97;;;32.33;;
78927;SDS011;68322;22.726;113.540;2023-03-01T19:21:26;65.60;;;31.58;;
78927;SDS011;68322;22.726;113.540;2023-03-01T19:23:57;56.95;;;31.10;;
78927;SDS011;68322;22.726;113.540;2023-03-01T19:26:25;51.63;;;27.30;;
78927;SDS011;68322;22.726;113.540;2023-03-01T19:31:20;48.08;;;26.48;;
78927;SDS011;68322;22.726;113.540;2023-03-01T19:33:48;53.22;;;31.77;;
78927;SDS011;68322;22.726;113.540;2023-03-01T19:36:15;47.85;;;26.92;;
78927;SDS011;68322;22.726;113.540;2023-03-01T19:38:43;41.80;;;24.88;;
78927;SDS011;68322;22.726;113.540;2023-03-01T19:41:12;35.15;;;21.85;;
78927;SDS011;68322;22.726;113.540;2023-03-01T19:43:40;41.45;;;23.65;;
78927;SDS011;68322;22.726;113.540;2023-03-01T19:46:07;44.78;;;25.30;;
78927;SDS011;68322;22.726;113.540;2023-03-01T19:48:34;43.08;;;24.38;;
78927;SDS011;68322;22.726;113.540;2023-03-01T19:51:01;36.05;;;20.58;;
78927;SDS011;68322;22.726;113.540;2023-03-01T19:53:27;38.30;;;23.05;;
78927;SDS011;68322;22.726;113.540;2023-03-01T19:55:58;42.40;;;22.83;;
78927;SDS011;68322;22.726;113.540;2023-03-01T19:58:25;36.08;;;21.30;;
78927;SDS011;68322;22.726;113.540;2023-03-01T20:00:52;51.30;;;24.73;;
78927;SDS011;68322;22.726;113.540;2023-03-01T20:03:30;39.80;;;24.40;;
78927;SDS011;68322;22.726;113.540;2023-03-01T20:05:57;40.63;;;23.20;;
78927;SDS011;68322;22.726;113.540;2023-03-01T20:08:28;42.33;;;24.65;;
78927;SDS011;68322;22.726;113.540;2023-03-01T20:11:03;39.85;;;23.00;;
78927;SDS011;68322;22.726;113.540;2023-03-01T20:13:30;51.05;;;25.75;;
78927;SDS011;68322;22.726;113.540;2023-03-01T20:15:57;45.33;;;25.48;;
78927;SDS011;68322;22.726;113.540;2023-03-01T20:18:23;39.50;;;22.90;;
78927;SDS011;68322;22.726;113.540;2023-03-01T20:20:51;47.65;;;25.60;;
78927;SDS011;68322;22.726;113.540;2023-03-01T20:23:18;46.05;;;26.13;;
78927;SDS011;68322;22.726;113.540;2023-03-01T20:25:45;43.78;;;23.33;;
78927;SDS011;68322;22.726;113.540;2023-03-01T20:28:15;44.22;;;23.02;;
78927;SDS011;68322;22.726;113.540;2023-03-01T20:30:42;49.55;;;23.23;;
78927;SDS011;68322;22.726;113.540;2023-03-01T20:33:09;43.83;;;25.35;;
78927;SDS011;68322;22.726;113.540;2023-03-01T20:35:36;39.95;;;23.10;;
78927;SDS011;68322;22.726;113.540;2023-03-01T20:38:05;41.90;;;22.98;;
78927;SDS011;68322;22.726;113.540;2023-03-01T20:40:32;42.17;;;20.25;;
78927;SDS011;68322;22.726;113.540;2023-03-01T20:42:59;38.03;;;19.80;;
78927;SDS011;68322;22.726;113.540;2023-03-01T20:45:26;38.88;;;23.63;;
78927;SDS011;68322;22.726;113.540;2023-03-01T20:47:53;33.80;;;22.42;;
78927;SDS011;68322;22.726;113.540;2023-03-01T20:50:20;28.40;;;18.10;;
78927;SDS011;68322;22.726;113.540;2023-03-01T20:52:46;32.67;;;21.10;;
78927;SDS011;68322;22.726;113.540;2023-03-01T20:55:13;31.50;;;18.73;;
78927;SDS011;68322;22.726;113.540;2023-03-01T20:57:40;38.13;;;21.95;;
78927;SDS011;68322;22.726;113.540;2023-03-01T21:00:07;31.73;;;19.67;;
78927;SDS011;68322;22.726;113.540;2023-03-01T21:02:34;33.65;;;21.52;;
78927;SDS011;68322;22.726;113.540;2023-03-01T21:05:00;32.00;;;18.23;;
78927;SDS011;68322;22.726;113.540;2023-03-01T21:07:27;27.17;;;18.20;;
78927;SDS011;68322;22.726;113.540;2023-03-01T21:09:54;32.13;;;19.40;;
78927;SDS011;68322;22.726;113.540;2023-03-01T21:12:21;33.60;;;20.05;;
78927;SDS011;68322;22.726;113.540;2023-03-01T21:14:47;37.03;;;19.27;;
78927;SDS011;68322;22.726;113.540;2023-03-01T21:17:15;28.58;;;17.33;;
78927;SDS011;68322;22.726;113.540;2023-03-01T21:19:42;34.20;;;18.40;;
78927;SDS011;68322;22.726;113.540;2023-03-01T21:22:10;32.33;;;19.13;;
78927;SDS011;68322;22.726;113.540;2023-03-01T21:24:37;32.20;;;17.13;;
78927;SDS011;68322;22.726;113.540;2023-03-01T21:27:03;34.33;;;20.42;;
78927;SDS011;68322;22.726;113.540;2023-03-01T21:29:40;33.38;;;21.20;;
78927;SDS011;68322;22.726;113.540;2023-03-01T21:32:08;37.72;;;20.65;;
78927;SDS011;68322;22.726;113.540;2023-03-01T21:34:35;28.73;;;18.17;;
78927;SDS011;68322;22.726;113.540;2023-03-01T21:37:03;36.28;;;20.35;;
78927;SDS011;68322;22.726;113.540;2023-03-01T21:39:30;36.08;;;20.98;;
78927;SDS011;68322;22.726;113.540;2023-03-01T21:41:58;40.15;;;19.65;;
78927;SDS011;68322;22.726;113.540;2023-03-01T21:44:25;33.53;;;18.00;;
78927;SDS011;68322;22.726;113.540;2023-03-01T21:46:52;33.90;;;19.98;;
78927;SDS011;68322;22.726;113.540;2023-03-01T21:49:19;36.22;;;19.27;;
78927;SDS011;68322;22.726;113.540;2023-03-01T21:51:46;34.08;;;19.92;;
78927;SDS011;68322;22.726;113.540;2023-03-01T21:54:13;31.60;;;17.58;;
78927;SDS011;68322;22.726;113.540;2023-03-01T21:56:40;32.92;;;18.70;;
78927;SDS011;68322;22.726;113.540;2023-03-01T21:59:10;37.00;;;21.02;;
78927;SDS011;68322;22.726;113.540;2023-03-01T22:01:38;33.67;;;20.60;;
78927;SDS011;68322;22.726;113.540;2023-03-01T22:04:04;41.08;;;19.42;;
78927;SDS011;68322;22.726;113.540;2023-03-01T22:06:35;31.23;;;20.35;;
78927;SDS011;68322;22.726;113.540;2023-03-01T22:09:10;30.58;;;18.73;;
78927;SDS011;68322;22.726;113.540;2023-03-01T22:11:38;33.78;;;20.58;;
78927;SDS011;68322;22.726;113.540;2023-03-01T22:14:05;34.10;;;20.08;;
78927;SDS011;68322;22.726;113.540;2023-03-01T22:16:32;36.40;;;19.38;;
78927;SDS011;68322;22.726;113.540;2023-03-01T22:18:59;33.17;;;20.98;;
78927;SDS011;68322;22.726;113.540;2023-03-01T22:21:26;31.75;;;19.08;;
78927;SDS011;68322;22.726;113.540;2023-03-01T22:23:53;35.38;;;21.60;;
78927;SDS011;68322;22.726;113.540;2023-03-01T22:28:47;34.08;;;19.55;;
78927;SDS011;68322;22.726;113.540;2023-03-01T22:31:14;34.22;;;16.23;;
78927;SDS011;68322;22.726;113.540;2023-03-01T22:33:41;31.45;;;19.58;;
78927;SDS011;68322;22.726;113.540;2023-03-01T22:36:07;34.53;;;19.63;;
78927;SDS011;68322;22.726;113.540;2023-03-01T22:38:34;40.60;;;21.73;;
78927;SDS011;68322;22.726;113.540;2023-03-01T22:41:02;36.92;;;20.35;;
78927;SDS011;68322;22.726;113.540;2023-03-01T22:45:56;36.15;;;18.77;;
78927;SDS011;68322;22.726;113.540;2023-03-01T22:48:23;40.03;;;21.65;;
78927;SDS011;68322;22.726;113.540;2023-03-01T22:50:50;45.15;;;23.48;;
78927;SDS011;68322;22.726;113.540;2023-03-01T22:53:17;36.28;;;21.48;;
78927;SDS011;68322;22.726;113.540;2023-03-01T22:55:44;34.13;;;19.42;;
78927;SDS011;68322;22.726;113.540;2023-03-01T22:58:11;37.63;;;20.95;;
78927;SDS011;68322;22.726;113.540;2023-03-01T23:00:37;35.08;;;20.48;;
78927;SDS011;68322;22.726;113.540;2023-03-01T23:03:04;39.40;;;19.65;;
78927;SDS011;68322;22.726;113.540;2023-03-01T23:05:31;35.90;;;20.13;;
78927;SDS011;68322;22.726;113.540;2023-03-01T23:07:57;32.05;;;18.30;;
78927;SDS011;68322;22.726;113.540;2023-03-01T23:10:24;30.20;;;17.05;;
78927;SDS011;68322;22.726;113.540;2023-03-01T23:12:53;41.42;;;21.10;;
78927;SDS011;68322;22.726;113.540;2023-03-01T23:17:46;39.45;;;19.92;;
78927;SDS011;68322;22.726;113.540;2023-03-01T23:20:13;31.83;;;18.58;;
78927;SDS011;68322;22.726;113.540;2023-03-01T23:22:39;33.85;;;19.77;;
78927;SDS011;68322;22.726;113.540;2023-03-01T23:25:08;33.75;;;20.55;;
78927;SDS011;68322;22.726;113.540;2023-03-01T23:27:39;35.03;;;22.02;;
78927;SDS011;68322;22.726;113.540;2023-03-01T23:30:06;37.95;;;21.80;;
78927;SDS011;68322;22.726;113.540;2023-03-01T23:32:33;33.55;;;19.23;;
78927;SDS011;68322;22.726;113.540;2023-03-01T23:35:06;35.53;;;20.75;;
78927;SDS011;68322;22.726;113.540;2023-03-01T23:37:33;31.70;;;19.60;;
78927;SDS011;68322;22.726;113.540;2023-03-01T23:39:59;37.38;;;20.30;;
78927;SDS011;68322;22.726;113.540;2023-03-01T23:42:30;33.67;;;18.17;;
78927;SDS011;68322;22.726;113.540;2023-03-01T23:44:56;35.92;;;20.20;;
78927;SDS011;68322;22.726;113.540;2023-03-01T23:47:23;39.35;;;23.13;;
78927;SDS011;68322;22.726;113.540;2023-03-01T23:49:50;51.45;;;26.90;;
78927;SDS011;68322;22.726;113.540;2023-03-01T23:52:17;43.35;;;26.13;;
78927;SDS011;68322;22.726;113.540;2023-03-01T23:54:43;48.25;;;26.55;;
78927;SDS011;68322;22.726;113.540;2023-03-01T23:57:11;53.40;;;27.67;;
78927;SDS011;68322;22.726;113.540;2023-03-01T23:59:37;46.33;;;23.55;;
